Terminal Aerodrome Forecast
Issued by NWS Nashville, TN

Home | Current Version | Previous Version | Text Only | Print | Product List | Glossary On
Versions: 1 2 3 4 5 6 7 8 9 10 11 12 13 14 15 16 17 18 19 20 21 22 23 24 25 26 27 28 29 30 31 32 33 34 35 36 37 38 39
119
FTUS44 KOHX 061957 AAA
TAFBNA
TAF AMD
KBNA 061957Z 0620/0718 32006G13KT P6SM OVC007
     FM070600 35006KT P6SM BKN015
     FM071200 02005KT P6SM SCT020 BKN100=

USA.gov is the U.S. government's official web portal to all federal, state and local government web resources and services.